createdAt,value
2023-05-21T00:02:30.222Z,10.60
2023-05-21T00:05:01.407Z,11.60
2023-05-21T00:07:33.323Z,11.17
2023-05-21T00:10:04.386Z,11.03
2023-05-21T00:12:37.886Z,10.53
2023-05-21T00:15:09.944Z,10.60
2023-05-21T00:17:41.255Z,10.70
2023-05-21T00:20:13.130Z,10.50
2023-05-21T00:22:44.792Z,11.33
2023-05-21T00:25:15.729Z,10.70
2023-05-21T00:27:49.495Z,9.60
2023-05-21T00:30:20.387Z,10.87
2023-05-21T00:32:51.363Z,10.77
2023-05-21T00:35:22.423Z,9.47
2023-05-21T00:37:54.079Z,10.30
2023-05-21T00:40:25.081Z,10.33
2023-05-21T00:42:59.853Z,10.30
2023-05-21T00:45:30.885Z,9.30
2023-05-21T00:48:02.924Z,9.63
2023-05-21T00:50:34.259Z,8.83
2023-05-21T00:53:05.357Z,9.37
2023-05-21T00:55:36.487Z,9.67
2023-05-21T00:58:11.216Z,9.40
2023-05-21T01:00:42.409Z,9.10
2023-05-21T01:03:14.615Z,8.10
2023-05-21T01:05:47.262Z,7.80
2023-05-21T01:08:18.280Z,8.13
2023-05-21T01:10:49.290Z,8.90
2023-05-21T01:13:24.464Z,9.13
2023-05-21T01:15:58.211Z,8.87
2023-05-21T01:18:30.006Z,9.40
2023-05-21T01:21:00.990Z,9.03
2023-05-21T01:23:34.871Z,9.37
2023-05-21T01:26:07.448Z,8.10
2023-05-21T01:28:38.520Z,8.50
2023-05-21T01:31:19.597Z,8.60
2023-05-21T01:33:53.022Z,7.60
2023-05-21T01:36:27.802Z,8.80
2023-05-21T01:39:05.400Z,7.40
2023-05-21T01:41:39.743Z,7.00
2023-05-21T01:44:12.758Z,7.43
2023-05-21T01:46:43.879Z,7.13
2023-05-21T01:49:15.494Z,8.63
2023-05-21T01:51:46.687Z,7.10
2023-05-21T01:54:22.112Z,7.33
2023-05-21T01:56:53.221Z,7.60
2023-05-21T01:59:24.180Z,7.57
2023-05-21T02:01:55.110Z,7.80
2023-05-21T02:04:26.040Z,7.70
2023-05-21T02:06:57.155Z,7.63
2023-05-21T02:09:30.720Z,8.97
2023-05-21T02:12:02.323Z,8.23
2023-05-21T02:14:33.869Z,8.03
2023-05-21T02:17:04.951Z,8.40
2023-05-21T02:19:35.910Z,7.93
2023-05-21T02:22:06.992Z,7.03
2023-05-21T02:24:41.197Z,7.60
2023-05-21T02:27:13.860Z,7.73
2023-05-21T02:29:44.720Z,7.57
2023-05-21T02:32:15.640Z,7.87
2023-05-21T02:34:47.439Z,7.33
2023-05-21T02:37:19.014Z,8.00
2023-05-21T02:39:52.561Z,7.70
2023-05-21T02:42:24.516Z,8.20
2023-05-21T02:44:55.874Z,7.70
2023-05-21T02:47:27.191Z,8.03
2023-05-21T02:49:58.162Z,8.07
2023-05-21T02:52:29.292Z,7.30
2023-05-21T02:55:02.875Z,8.63
2023-05-21T02:57:33.825Z,8.13
2023-05-21T03:00:06.146Z,7.93
2023-05-21T03:02:37.253Z,7.43
2023-05-21T03:05:09.571Z,8.43
2023-05-21T03:07:42.023Z,8.30
2023-05-21T03:10:15.743Z,7.90
2023-05-21T03:12:47.276Z,8.53
2023-05-21T03:15:24.103Z,8.00
2023-05-21T03:17:55.418Z,9.27
2023-05-21T03:20:27.045Z,8.37
2023-05-21T03:22:58.041Z,9.10
2023-05-21T03:25:31.796Z,10.80
2023-05-21T03:28:02.714Z,10.57
2023-05-21T03:30:33.652Z,9.70
2023-05-21T03:33:05.151Z,10.33
2023-05-21T03:35:36.644Z,10.27
2023-05-21T03:38:07.838Z,10.33
2023-05-21T03:40:41.444Z,9.93
2023-05-21T03:43:12.381Z,9.50
2023-05-21T03:45:44.556Z,9.97
2023-05-21T03:48:16.031Z,10.03
2023-05-21T03:50:47.195Z,10.27
2023-05-21T03:53:18.796Z,9.70
2023-05-21T03:55:55.511Z,9.10
2023-05-21T03:58:26.953Z,9.37
2023-05-21T04:00:57.883Z,9.47
2023-05-21T04:03:29.130Z,9.43
2023-05-21T04:06:00.296Z,10.20
2023-05-21T04:08:33.408Z,10.13
2023-05-21T04:11:06.989Z,9.70
2023-05-21T04:13:37.983Z,9.93
2023-05-21T04:16:09.694Z,9.80
2023-05-21T04:18:41.120Z,10.40
2023-05-21T04:21:13.442Z,9.47
2023-05-21T04:23:44.369Z,9.57
2023-05-21T04:26:17.971Z,9.00
2023-05-21T04:28:48.907Z,9.23
2023-05-21T04:31:20.062Z,9.80
2023-05-21T04:33:51.035Z,8.83
2023-05-21T04:36:22.025Z,9.33
2023-05-21T04:38:53.563Z,9.33
2023-05-21T04:41:27.159Z,9.33
2023-05-21T04:43:58.881Z,10.00
2023-05-21T04:46:31.134Z,9.07
2023-05-21T04:49:03.222Z,10.23
2023-05-21T04:51:34.499Z,10.10
2023-05-21T04:54:05.533Z,9.53
2023-05-21T04:56:39.241Z,9.07
2023-05-21T04:59:10.178Z,9.17
2023-05-21T05:01:41.369Z,10.50
2023-05-21T05:04:12.341Z,9.50
2023-05-21T05:06:43.210Z,9.20
2023-05-21T05:09:14.178Z,10.30
2023-05-21T05:11:47.776Z,10.43
2023-05-21T05:14:18.966Z,9.13
2023-05-21T05:16:49.979Z,10.20
2023-05-21T05:19:20.989Z,11.20
2023-05-21T05:21:51.876Z,9.57
2023-05-21T05:24:22.807Z,10.80
2023-05-21T05:26:56.249Z,9.53
2023-05-21T05:29:27.154Z,10.60
2023-05-21T05:31:58.059Z,9.77
2023-05-21T05:34:29.074Z,9.60
2023-05-21T05:37:00.061Z,9.77
2023-05-21T05:39:31.010Z,9.20
2023-05-21T05:42:06.044Z,10.40
2023-05-21T05:44:36.929Z,10.03
2023-05-21T05:47:10.969Z,9.30
2023-05-21T05:49:41.837Z,10.13
2023-05-21T05:52:12.799Z,9.90
2023-05-21T05:54:43.783Z,10.17
2023-05-21T05:57:17.355Z,9.70
2023-05-21T05:59:48.403Z,10.60
2023-05-21T06:02:19.512Z,9.63
2023-05-21T06:04:50.458Z,9.90
2023-05-21T06:07:21.319Z,9.40
2023-05-21T06:09:52.115Z,11.10
2023-05-21T06:12:25.595Z,10.67
2023-05-21T06:14:56.452Z,11.10
2023-05-21T06:17:27.362Z,9.90
2023-05-21T06:19:58.257Z,10.97
2023-05-21T06:22:29.140Z,9.83
2023-05-21T06:25:00.046Z,10.00
2023-05-21T06:27:33.545Z,10.23
2023-05-21T06:30:04.740Z,10.03
2023-05-21T06:32:35.788Z,10.47
2023-05-21T06:35:07.355Z,9.90
2023-05-21T06:37:38.389Z,10.43
2023-05-21T06:40:11.226Z,10.13
2023-05-21T06:42:44.809Z,10.47
2023-05-21T06:45:15.872Z,10.43
2023-05-21T06:47:46.773Z,10.70
2023-05-21T06:50:17.592Z,11.53
2023-05-21T06:52:50.377Z,11.23
2023-05-21T06:55:21.576Z,11.60
2023-05-21T06:57:55.025Z,11.30
2023-05-21T07:00:25.955Z,12.30
2023-05-21T07:02:56.920Z,12.00
2023-05-21T07:05:27.850Z,13.50
2023-05-21T07:08:01.412Z,14.20
2023-05-21T07:10:32.400Z,14.37
2023-05-21T07:13:05.812Z,14.10
2023-05-21T07:15:37.059Z,13.70
2023-05-21T07:18:08.031Z,12.70
2023-05-21T07:20:39.029Z,12.53
2023-05-21T07:23:09.907Z,11.87
2023-05-21T07:25:40.875Z,11.70
2023-05-21T07:28:14.668Z,11.90
2023-05-21T07:30:45.655Z,11.77
2023-05-21T07:33:16.907Z,11.80
2023-05-21T07:35:47.857Z,12.27
2023-05-21T07:38:18.902Z,12.93
2023-05-21T07:40:49.868Z,13.13
2023-05-21T07:43:23.343Z,13.20
2023-05-21T07:45:54.425Z,13.33
2023-05-21T07:48:25.524Z,13.23
2023-05-21T07:50:56.779Z,14.30
2023-05-21T07:53:27.618Z,13.30
2023-05-21T07:55:58.494Z,13.73
2023-05-21T07:58:32.698Z,12.40
2023-05-21T08:01:03.917Z,12.67
2023-05-21T08:03:34.966Z,12.73
2023-05-21T08:06:06.196Z,12.50
2023-05-21T08:08:37.030Z,12.30
2023-05-21T08:11:08.151Z,12.27
2023-05-21T08:13:41.682Z,11.90
2023-05-21T08:16:12.605Z,12.30
2023-05-21T08:18:43.639Z,12.60
2023-05-21T08:21:14.569Z,11.67
2023-05-21T08:23:45.435Z,12.70
2023-05-21T08:26:16.707Z,12.47
2023-05-21T08:28:50.266Z,13.17
2023-05-21T08:31:21.628Z,12.80
2023-05-21T08:33:56.627Z,14.20
2023-05-21T08:36:27.908Z,13.07
2023-05-21T08:38:58.764Z,14.03
2023-05-21T08:41:31.310Z,14.07
2023-05-21T08:44:08.300Z,14.13
2023-05-21T08:46:43.375Z,14.30
2023-05-21T08:49:16.834Z,13.83
2023-05-21T08:51:50.405Z,14.20
2023-05-21T08:54:21.309Z,13.80
2023-05-21T08:56:52.340Z,14.27
2023-05-21T08:59:26.384Z,13.50
2023-05-21T09:01:57.947Z,13.77
2023-05-21T09:04:29.218Z,15.13
2023-05-21T09:07:03.120Z,14.67
2023-05-21T09:09:36.999Z,16.07
2023-05-21T09:12:09.149Z,15.40
2023-05-21T09:14:43.725Z,15.20
2023-05-21T09:17:17.589Z,14.50
2023-05-21T09:20:12.660Z,14.50
2023-05-21T09:22:45.474Z,13.63
2023-05-21T09:25:18.200Z,13.63
2023-05-21T09:27:49.167Z,14.10
2023-05-21T09:30:25.999Z,13.80
2023-05-21T09:33:03.629Z,13.70
2023-05-21T09:35:38.172Z,14.43
2023-05-21T09:38:12.283Z,14.30
2023-05-21T09:40:48.321Z,14.00
2023-05-21T09:43:19.659Z,14.50
2023-05-21T09:45:59.747Z,14.53
2023-05-21T09:48:37.504Z,13.43
2023-05-21T09:51:13.737Z,13.67
2023-05-21T09:54:02.643Z,14.07
2023-05-21T09:56:33.545Z,14.10
2023-05-21T09:59:07.176Z,14.07
2023-05-21T10:01:41.242Z,13.70
2023-05-21T10:04:12.710Z,14.97
2023-05-21T10:06:47.919Z,14.10
2023-05-21T10:09:22.225Z,14.70
2023-05-21T10:11:56.252Z,14.27
2023-05-21T10:14:30.611Z,15.57
2023-05-21T10:17:04.243Z,14.33
2023-05-21T10:19:37.420Z,16.27
2023-05-21T10:22:09.057Z,16.93
2023-05-21T10:24:40.908Z,15.30
2023-05-21T10:27:12.653Z,16.10
2023-05-21T10:29:46.149Z,16.03
2023-05-21T10:32:19.876Z,14.40
2023-05-21T10:34:52.290Z,16.47
2023-05-21T10:37:26.732Z,15.30
2023-05-21T10:39:58.174Z,16.30
2023-05-21T10:42:54.053Z,14.00
2023-05-21T10:45:35.702Z,16.27
2023-05-21T10:48:26.485Z,15.30
2023-05-21T10:51:17.992Z,15.57
2023-05-21T10:54:11.255Z,17.10
2023-05-21T10:56:46.565Z,14.70
2023-05-21T10:59:24.825Z,15.97
2023-05-21T11:01:57.116Z,15.60
2023-05-21T11:04:32.772Z,15.90
2023-05-21T11:07:04.879Z,14.60
2023-05-21T11:09:35.873Z,17.10
2023-05-21T11:12:08.300Z,16.10
2023-05-21T11:14:41.320Z,16.60
2023-05-21T11:17:18.728Z,16.57
2023-05-21T11:19:52.417Z,16.90
2023-05-21T11:22:25.451Z,15.60
2023-05-21T11:24:57.929Z,16.20
2023-05-21T11:27:36.678Z,16.57
2023-05-21T11:30:09.779Z,16.53
2023-05-21T11:32:41.986Z,15.30
2023-05-21T11:35:17.212Z,15.33
2023-05-21T11:37:56.517Z,16.90
2023-05-21T11:40:30.865Z,16.77
2023-05-21T11:43:02.118Z,15.70
2023-05-21T11:45:35.160Z,15.60
2023-05-21T11:48:07.780Z,15.60
2023-05-21T11:50:42.427Z,16.30
2023-05-21T11:53:14.299Z,15.13
2023-05-21T11:55:47.501Z,14.73
2023-05-21T11:58:19.470Z,14.97
2023-05-21T12:00:53.938Z,16.80
2023-05-21T12:03:27.268Z,15.23
2023-05-21T12:06:08.516Z,16.63
2023-05-21T12:08:39.450Z,14.63
2023-05-21T12:11:11.276Z,16.40
2023-05-21T12:13:42.206Z,17.13
2023-05-21T12:16:13.209Z,14.67
2023-05-21T12:18:44.380Z,15.70
2023-05-21T12:21:18.483Z,15.27
2023-05-21T12:23:49.572Z,15.40
2023-05-21T12:26:21.981Z,16.83
2023-05-21T12:28:52.917Z,16.00
2023-05-21T12:31:27.268Z,15.60
2023-05-21T12:33:58.301Z,15.50
2023-05-21T12:36:34.321Z,16.30
2023-05-21T12:39:05.406Z,16.07
2023-05-21T12:41:36.460Z,15.87
2023-05-21T12:44:08.910Z,15.40
2023-05-21T12:46:40.131Z,16.20
2023-05-21T12:49:11.090Z,15.00
2023-05-21T12:51:44.604Z,15.70
2023-05-21T12:54:16.080Z,16.23
2023-05-21T12:56:50.033Z,16.43
2023-05-21T12:59:21.014Z,15.87
2023-05-21T13:01:51.930Z,15.17
2023-05-21T13:04:23.342Z,14.80
2023-05-21T13:06:56.963Z,15.10
2023-05-21T13:09:27.910Z,15.23
2023-05-21T13:12:00.997Z,15.90
2023-05-21T13:14:31.823Z,16.40
2023-05-21T13:17:02.689Z,15.67
2023-05-21T13:19:33.755Z,16.30
2023-05-21T13:22:10.428Z,14.20
2023-05-21T13:24:41.465Z,16.00
2023-05-21T13:27:12.608Z,14.70
2023-05-21T13:29:43.648Z,13.80
2023-05-21T13:32:14.604Z,13.73
2023-05-21T13:34:45.590Z,13.43
2023-05-21T13:37:20.340Z,15.03
2023-05-21T13:39:51.501Z,14.50
2023-05-21T13:42:22.553Z,15.00
2023-05-21T13:44:53.784Z,13.57
2023-05-21T13:47:24.887Z,12.57
2023-05-21T13:49:56.366Z,12.90
2023-05-21T13:52:29.908Z,14.50
2023-05-21T13:55:00.954Z,14.00
2023-05-21T13:57:32.021Z,13.60
2023-05-21T14:00:04.064Z,14.50
2023-05-21T14:02:35.056Z,14.10
2023-05-21T14:05:06.355Z,13.40
2023-05-21T14:07:40.105Z,13.47
2023-05-21T14:10:11.949Z,13.47
2023-05-21T14:12:43.209Z,12.50
2023-05-21T14:15:14.808Z,13.83
2023-05-21T14:17:45.774Z,13.30
2023-05-21T14:20:16.710Z,13.13
2023-05-21T14:22:50.209Z,12.63
2023-05-21T14:25:21.072Z,13.20
2023-05-21T14:27:51.968Z,12.57
2023-05-21T14:30:22.927Z,12.80
2023-05-21T14:32:55.465Z,12.73
2023-05-21T14:35:28.152Z,12.60
2023-05-21T14:38:01.651Z,12.87
2023-05-21T14:40:32.494Z,14.03
2023-05-21T14:43:03.382Z,13.43
2023-05-21T14:45:35.632Z,13.17
2023-05-21T14:48:08.802Z,13.13
2023-05-21T14:50:40.105Z,12.00
2023-05-21T14:53:15.047Z,13.23
2023-05-21T14:55:45.970Z,12.47
2023-05-21T14:58:16.802Z,12.30
2023-05-21T15:00:47.888Z,13.43
2023-05-21T15:03:18.864Z,12.57
2023-05-21T15:05:49.812Z,12.55
2023-05-21T15:08:23.231Z,14.30
2023-05-21T15:10:54.321Z,13.80
2023-05-21T15:13:25.129Z,13.17
2023-05-21T15:15:56.963Z,12.60
2023-05-21T15:18:29.418Z,12.77
2023-05-21T15:21:00.290Z,13.37
2023-05-21T15:23:33.844Z,12.43
2023-05-21T15:26:04.763Z,13.60
2023-05-21T15:28:35.593Z,12.60
2023-05-21T15:31:06.937Z,12.83
2023-05-21T15:33:37.785Z,13.00
2023-05-21T15:36:09.186Z,12.17
2023-05-21T15:38:42.659Z,12.33
2023-05-21T15:41:13.718Z,13.23
2023-05-21T15:43:45.059Z,13.20
2023-05-21T15:46:16.438Z,11.63
2023-05-21T15:48:47.397Z,12.17
2023-05-21T15:51:18.332Z,12.40
2023-05-21T15:53:51.806Z,12.80
2023-05-21T15:56:22.662Z,12.67
2023-05-21T15:58:53.752Z,13.23
2023-05-21T16:01:24.895Z,13.10
2023-05-21T16:03:55.882Z,14.70
2023-05-21T16:06:27.939Z,14.40
2023-05-21T16:09:01.954Z,15.20
2023-05-21T16:11:33.360Z,13.87
2023-05-21T16:14:04.276Z,14.63
2023-05-21T16:16:35.223Z,15.30
2023-05-21T16:19:06.257Z,13.93
2023-05-21T16:21:37.784Z,15.53
2023-05-21T16:24:11.452Z,13.90
2023-05-21T16:26:42.336Z,14.40
2023-05-21T16:29:13.342Z,14.10
2023-05-21T16:31:44.219Z,13.90
2023-05-21T16:34:15.093Z,15.17
2023-05-21T16:36:46.538Z,14.13
2023-05-21T16:39:19.973Z,13.50
2023-05-21T16:41:50.970Z,14.30
2023-05-21T16:44:21.879Z,14.23
2023-05-21T16:46:52.720Z,13.50
2023-05-21T16:49:23.585Z,15.73
2023-05-21T16:51:54.526Z,16.20
2023-05-21T16:54:27.985Z,15.30
2023-05-21T16:56:59.561Z,15.77
2023-05-21T16:59:30.845Z,14.77
2023-05-21T17:02:04.819Z,15.33
2023-05-21T17:04:35.712Z,14.03
2023-05-21T17:07:06.643Z,14.90
2023-05-21T17:09:40.415Z,14.50
2023-05-21T17:12:11.259Z,15.30
2023-05-21T17:14:42.417Z,15.20
2023-05-21T17:17:13.514Z,16.60
2023-05-21T17:19:44.863Z,15.70
2023-05-21T17:22:17.065Z,15.70
2023-05-21T17:24:50.678Z,13.90
2023-05-21T17:27:21.661Z,15.63
2023-05-21T17:29:53.820Z,14.40
2023-05-21T17:32:25.488Z,15.00
2023-05-21T17:34:56.402Z,14.50
2023-05-21T17:37:27.509Z,13.97
2023-05-21T17:40:01.034Z,15.47
2023-05-21T17:42:32.025Z,15.10
2023-05-21T17:45:03.218Z,13.83
2023-05-21T17:47:34.736Z,14.80
2023-05-21T17:50:05.977Z,14.10
2023-05-21T17:52:36.878Z,15.03
2023-05-21T17:55:14.508Z,13.90
2023-05-21T17:57:46.107Z,13.50
2023-05-21T18:00:17.561Z,15.13
2023-05-21T18:02:48.863Z,14.57
2023-05-21T18:05:19.753Z,13.53
2023-05-21T18:07:50.617Z,15.30
2023-05-21T18:10:24.133Z,14.57
2023-05-21T18:12:54.959Z,15.67
2023-05-21T18:15:25.950Z,14.70
2023-05-21T18:17:56.847Z,14.60
2023-05-21T18:20:27.901Z,14.37
2023-05-21T18:22:58.863Z,14.50
2023-05-21T18:25:32.397Z,13.40
2023-05-21T18:28:03.394Z,15.73
2023-05-21T18:30:34.472Z,14.47
2023-05-21T18:33:05.448Z,14.80
2023-05-21T18:35:36.383Z,15.20
2023-05-21T18:38:09.987Z,15.33
2023-05-21T18:40:43.619Z,15.33
2023-05-21T18:43:14.656Z,14.90
2023-05-21T18:45:45.912Z,15.97
2023-05-21T18:48:16.834Z,14.60
2023-05-21T18:50:47.831Z,15.50
2023-05-21T18:53:18.774Z,15.27
2023-05-21T18:55:52.281Z,16.40
2023-05-21T18:58:23.836Z,16.37
2023-05-21T19:00:54.679Z,15.40
2023-05-21T19:03:26.202Z,14.90
2023-05-21T19:05:57.278Z,14.63
2023-05-21T19:08:28.139Z,16.10
2023-05-21T19:11:01.610Z,16.20
2023-05-21T19:13:32.607Z,15.47
2023-05-21T19:16:03.496Z,16.83
2023-05-21T19:18:34.510Z,15.80
2023-05-21T19:21:05.808Z,17.77
2023-05-21T19:23:51.289Z,15.80
2023-05-21T19:26:26.510Z,17.30
2023-05-21T19:28:57.339Z,17.27
2023-05-21T19:31:28.155Z,18.63
2023-05-21T19:33:59.075Z,16.40
2023-05-21T19:36:37.850Z,17.47
2023-05-21T19:39:15.640Z,15.33
2023-05-21T19:41:49.209Z,11.83
2023-05-21T19:44:20.199Z,9.20
2023-05-21T19:46:51.702Z,8.20
2023-05-21T19:49:22.547Z,8.20
2023-05-21T19:51:54.918Z,7.43
2023-05-21T19:54:26.137Z,7.70
2023-05-21T19:57:00.040Z,8.47
2023-05-21T19:59:30.899Z,8.17
2023-05-21T20:02:01.864Z,8.37
2023-05-21T20:04:32.723Z,7.93
2023-05-21T20:07:03.576Z,8.87
2023-05-21T20:09:34.599Z,8.13
2023-05-21T20:12:08.872Z,9.80
2023-05-21T20:14:39.746Z,10.43
2023-05-21T20:17:12.002Z,10.63
2023-05-21T20:19:44.167Z,11.10
2023-05-21T20:22:15.701Z,9.97
2023-05-21T20:24:46.962Z,10.73
2023-05-21T20:27:20.483Z,10.60
2023-05-21T20:29:52.001Z,10.03
2023-05-21T20:32:22.946Z,10.23
2023-05-21T20:35:02.681Z,10.40
2023-05-21T20:37:35.029Z,9.90
2023-05-21T20:40:13.316Z,10.70
2023-05-21T20:42:48.459Z,11.47
2023-05-21T20:45:21.148Z,11.27
2023-05-21T20:47:53.791Z,10.53
2023-05-21T20:50:26.031Z,11.70
2023-05-21T20:52:58.141Z,9.73
2023-05-21T20:55:29.022Z,10.97
2023-05-21T20:58:04.285Z,11.70
2023-05-21T21:00:35.340Z,11.90
2023-05-21T21:03:10.428Z,11.83
2023-05-21T21:05:41.696Z,12.97
2023-05-21T21:08:12.585Z,12.10
2023-05-21T21:10:46.927Z,11.23
2023-05-21T21:13:20.569Z,9.63
2023-05-21T21:15:51.557Z,9.13
2023-05-21T21:18:22.450Z,8.70
2023-05-21T21:20:53.374Z,8.50
2023-05-21T21:23:25.801Z,8.10
2023-05-21T21:25:56.675Z,8.13
2023-05-21T21:28:30.088Z,8.37
2023-05-21T21:31:00.941Z,8.63
2023-05-21T21:33:31.935Z,7.37
2023-05-21T21:36:03.663Z,7.83
2023-05-21T21:38:34.560Z,7.90
2023-05-21T21:41:05.659Z,7.60
2023-05-21T21:43:39.432Z,8.83
2023-05-21T21:46:25.384Z,8.80
2023-05-21T21:48:56.676Z,8.20
2023-05-21T21:51:30.584Z,10.10
2023-05-21T21:54:04.816Z,10.60
2023-05-21T21:56:38.237Z,11.10
2023-05-21T21:59:12.074Z,10.37
2023-05-21T22:01:45.286Z,11.17
2023-05-21T22:04:16.475Z,11.60
2023-05-21T22:06:53.952Z,11.67
2023-05-21T22:09:24.847Z,12.63
2023-05-21T22:11:59.086Z,12.60
2023-05-21T22:14:33.091Z,12.80
2023-05-21T22:17:04.216Z,12.83
2023-05-21T22:19:35.252Z,12.10
2023-05-21T22:22:06.861Z,12.10
2023-05-21T22:24:37.749Z,12.60
2023-05-21T22:27:09.556Z,13.07
2023-05-21T22:29:43.020Z,11.93
2023-05-21T22:32:13.912Z,14.33
2023-05-21T22:34:44.750Z,13.80
2023-05-21T22:37:15.884Z,14.40
2023-05-21T22:39:46.913Z,14.37
2023-05-21T22:42:18.030Z,13.20
2023-05-21T22:44:52.292Z,13.33
2023-05-21T22:47:24.334Z,12.60
2023-05-21T22:49:58.516Z,13.73
2023-05-21T22:52:29.539Z,13.70
2023-05-21T22:55:00.834Z,13.07
2023-05-21T22:57:33.115Z,15.10
2023-05-21T23:00:07.658Z,14.87
2023-05-21T23:02:38.673Z,14.60
2023-05-21T23:05:10.122Z,15.97
2023-05-21T23:07:41.496Z,14.23
2023-05-21T23:10:13.177Z,17.47
2023-05-21T23:12:44.069Z,13.50
2023-05-21T23:15:17.838Z,15.97
2023-05-21T23:17:48.696Z,16.60
2023-05-21T23:20:22.953Z,17.10
2023-05-21T23:22:54.096Z,17.57
2023-05-21T23:25:24.994Z,16.60
2023-05-21T23:27:55.860Z,16.63
2023-05-21T23:30:29.383Z,17.63
2023-05-21T23:33:00.349Z,15.23
2023-05-21T23:35:31.387Z,16.73
2023-05-21T23:38:02.271Z,15.57
2023-05-21T23:40:33.135Z,18.40
2023-05-21T23:43:04.821Z,17.67
2023-05-21T23:45:38.744Z,15.60
2023-05-21T23:48:10.261Z,16.13
2023-05-21T23:50:41.658Z,15.17
2023-05-21T23:53:13.112Z,14.80
2023-05-21T23:55:44.578Z,14.70
2023-05-21T23:58:15.666Z,15.30
